createdAt,value
2022-11-02T00:00:57.094Z,9.17
2022-11-02T00:04:05.323Z,9.01
2022-11-02T00:07:14.920Z,8.98
2022-11-02T00:10:24.922Z,8.88
2022-11-02T00:13:33.229Z,8.77
2022-11-02T00:16:41.883Z,8.73
2022-11-02T00:19:50.269Z,8.65
2022-11-02T00:23:03.271Z,8.65
2022-11-02T00:26:11.814Z,8.64
2022-11-02T00:29:23.488Z,8.62
2022-11-02T00:32:32.156Z,8.58
2022-11-02T00:41:09.013Z,8.59
2022-11-02T00:44:33.167Z,8.56
2022-11-02T00:47:41.820Z,8.48
2022-11-02T00:50:50.646Z,8.45
2022-11-02T00:54:00.836Z,8.46
2022-11-02T00:57:11.014Z,8.50
2022-11-02T01:00:20.069Z,8.41
2022-11-02T01:03:28.435Z,8.43
2022-11-02T01:06:38.762Z,8.35
2022-11-02T01:09:46.958Z,8.29
2022-11-02T01:12:56.765Z,8.28
2022-11-02T01:16:05.817Z,8.26
2022-11-02T01:19:14.950Z,8.24
2022-11-02T01:22:23.105Z,8.20
2022-11-02T01:25:31.299Z,8.17
2022-11-02T01:28:42.401Z,8.18
2022-11-02T01:31:51.696Z,8.27
2022-11-02T01:35:08.360Z,8.16
2022-11-02T01:38:17.659Z,8.13
2022-11-02T01:41:25.957Z,8.19
2022-11-02T01:44:36.896Z,8.44
2022-11-02T01:47:49.609Z,8.47
2022-11-02T01:51:01.466Z,8.36
2022-11-02T01:54:15.312Z,8.30
2022-11-02T01:57:24.102Z,8.37
2022-11-02T02:00:35.177Z,8.51
2022-11-02T02:03:45.495Z,8.48
2022-11-02T02:06:59.557Z,8.45
2022-11-02T02:10:09.461Z,8.51
2022-11-02T02:13:19.967Z,8.55
2022-11-02T02:16:55.472Z,8.68
2022-11-02T02:20:18.831Z,8.83
2022-11-02T02:23:54.968Z,8.73
2022-11-02T02:27:13.973Z,8.78
2022-11-02T02:30:24.315Z,8.78
2022-11-02T02:33:40.411Z,8.92
2022-11-02T02:36:54.653Z,8.92
2022-11-02T02:40:12.408Z,8.98
2022-11-02T02:43:33.703Z,8.98
2022-11-02T02:46:56.029Z,8.99
2022-11-02T02:50:13.004Z,8.96
2022-11-02T02:53:29.530Z,8.98
2022-11-02T02:56:43.792Z,8.95
2022-11-02T02:59:52.157Z,8.91
2022-11-02T03:03:06.379Z,9.01
2022-11-02T03:06:23.608Z,9.03
2022-11-02T03:09:42.561Z,8.97
2022-11-02T03:13:11.146Z,8.96
2022-11-02T03:16:42.580Z,8.93
2022-11-02T03:20:06.117Z,8.88
2022-11-02T03:23:21.340Z,8.86
2022-11-02T03:26:38.898Z,8.91
2022-11-02T03:29:57.295Z,9.01
2022-11-02T03:33:10.808Z,9.13
2022-11-02T03:36:32.681Z,9.27
2022-11-02T03:39:47.619Z,9.32
2022-11-02T03:52:51.323Z,9.77
2022-11-02T03:56:28.151Z,9.84
2022-11-02T03:59:37.144Z,9.96
2022-11-02T04:02:48.906Z,9.97
2022-11-02T04:05:58.090Z,10.03
2022-11-02T04:09:13.736Z,10.08
2022-11-02T04:12:40.026Z,10.08
2022-11-02T04:15:49.349Z,9.99
2022-11-02T04:19:15.159Z,9.85
2022-11-02T04:22:42.805Z,9.83
2022-11-02T04:25:58.880Z,9.72
2022-11-02T04:29:24.288Z,9.64
2022-11-02T04:32:56.702Z,9.62
2022-11-02T04:36:09.638Z,9.55
2022-11-02T04:39:19.147Z,9.48
2022-11-02T04:42:29.024Z,9.35
2022-11-02T04:45:40.208Z,9.29
2022-11-02T04:48:49.861Z,9.24
2022-11-02T04:51:58.406Z,9.24
2022-11-02T04:55:09.429Z,9.17
2022-11-02T04:58:21.353Z,9.11
2022-11-02T05:01:31.539Z,9.08
2022-11-02T05:04:42.018Z,9.07
2022-11-02T05:07:50.432Z,9.10
2022-11-02T05:11:00.492Z,9.14
2022-11-02T05:14:11.229Z,9.15
2022-11-02T05:17:19.968Z,9.18
2022-11-02T05:20:29.148Z,9.26
2022-11-02T05:23:39.573Z,9.29
2022-11-02T05:26:52.962Z,9.32
2022-11-02T05:30:07.809Z,9.35
2022-11-02T05:33:17.714Z,9.35
2022-11-02T05:36:26.785Z,9.33
2022-11-02T05:39:37.208Z,9.34
2022-11-02T05:42:45.781Z,9.47
2022-11-02T05:45:57.528Z,9.39
2022-11-02T05:49:06.012Z,9.36
2022-11-02T05:52:15.742Z,9.38
2022-11-02T05:55:24.892Z,9.32
2022-11-02T05:58:35.450Z,9.26
2022-11-02T06:01:45.114Z,9.29
2022-11-02T06:04:53.523Z,9.31
2022-11-02T06:08:03.001Z,9.33
2022-11-02T06:11:13.576Z,9.31
2022-11-02T06:14:21.774Z,9.43
2022-11-02T06:17:38.909Z,9.48
2022-11-02T06:20:47.083Z,9.45
2022-11-02T06:23:55.339Z,9.60
2022-11-02T06:27:03.564Z,9.70
2022-11-02T06:30:12.833Z,9.73
2022-11-02T06:33:22.728Z,9.80
2022-11-02T06:36:30.969Z,9.93
2022-11-02T06:39:39.308Z,10.00
2022-11-02T06:43:03.451Z,10.10
2022-11-02T06:46:15.899Z,10.20
2022-11-02T06:49:25.707Z,10.31
2022-11-02T06:52:35.185Z,10.45
2022-11-02T06:55:44.079Z,10.44
2022-11-02T06:58:52.271Z,10.42
2022-11-02T07:02:00.651Z,10.38
2022-11-02T07:05:10.914Z,10.38
2022-11-02T07:08:19.136Z,10.60
2022-11-02T07:11:27.407Z,10.58
2022-11-02T07:14:38.448Z,10.85
2022-11-02T07:17:48.211Z,10.88
2022-11-02T07:21:00.270Z,10.97
2022-11-02T07:24:09.148Z,11.10
2022-11-02T07:27:17.423Z,11.17
2022-11-02T07:30:25.911Z,11.13
2022-11-02T07:33:34.347Z,11.13
2022-11-02T07:36:43.975Z,11.20
2022-11-02T07:39:52.249Z,11.26
2022-11-02T07:43:02.100Z,11.36
2022-11-02T07:46:33.526Z,11.72
2022-11-02T07:49:41.814Z,11.78
2022-11-02T07:52:53.663Z,11.98
2022-11-02T07:56:02.460Z,12.29
2022-11-02T07:59:12.830Z,12.39
2022-11-02T08:07:07.644Z,12.53
2022-11-02T08:10:17.570Z,12.79
2022-11-02T08:13:32.720Z,13.24
2022-11-02T08:16:46.028Z,13.78
2022-11-02T08:19:54.713Z,14.10
2022-11-02T08:23:04.042Z,14.30
2022-11-02T08:26:13.760Z,14.29
2022-11-02T08:29:22.271Z,14.19
2022-11-02T08:32:30.656Z,14.26
2022-11-02T08:35:43.072Z,14.01
2022-11-02T08:38:51.261Z,14.07
2022-11-02T08:42:00.848Z,13.87
2022-11-02T08:45:10.289Z,13.99
2022-11-02T08:48:18.631Z,14.42
2022-11-02T08:51:26.822Z,14.46
2022-11-02T08:54:35.028Z,14.47
2022-11-02T08:57:48.725Z,14.54
2022-11-02T09:00:57.430Z,14.56
2022-11-02T09:04:05.994Z,14.52
2022-11-02T09:07:14.282Z,14.68
2022-11-02T09:10:22.789Z,15.05
2022-11-02T09:13:32.547Z,15.15
2022-11-02T09:16:43.188Z,15.32
2022-11-02T09:19:51.473Z,15.33
2022-11-02T09:22:59.844Z,15.21
2022-11-02T09:26:08.222Z,14.93
2022-11-02T09:29:17.894Z,15.14
2022-11-02T09:32:26.133Z,15.00
2022-11-02T09:35:36.840Z,15.00
2022-11-02T09:38:45.016Z,14.95
2022-11-02T09:42:08.297Z,15.05
2022-11-02T09:45:20.489Z,15.19
2022-11-02T09:48:36.357Z,15.29
2022-11-02T09:51:49.882Z,15.56
2022-11-02T09:55:00.988Z,15.73
2022-11-02T09:58:18.172Z,16.19
2022-11-02T10:01:58.943Z,16.01
2022-11-02T10:05:35.085Z,15.87
2022-11-02T10:08:57.705Z,15.65
2022-11-02T10:12:14.100Z,15.44
2022-11-02T10:15:29.524Z,15.19
2022-11-02T10:18:42.857Z,15.30
2022-11-02T10:21:58.731Z,15.54
2022-11-02T10:25:12.318Z,15.75
2022-11-02T10:28:27.025Z,15.98
2022-11-02T10:31:36.307Z,15.58
2022-11-02T10:34:58.529Z,15.43
2022-11-02T10:38:30.308Z,15.52
2022-11-02T10:42:11.055Z,15.99
2022-11-02T10:45:46.174Z,15.41
2022-11-02T10:49:06.626Z,15.45
2022-11-02T10:52:18.893Z,15.45
2022-11-02T10:55:37.696Z,15.80
2022-11-02T10:58:55.760Z,15.78
2022-11-02T11:02:14.541Z,15.75
2022-11-02T11:05:23.074Z,15.38
2022-11-02T11:08:40.198Z,15.27
2022-11-02T11:11:57.845Z,15.26
2022-11-02T11:22:27.496Z,15.65
2022-11-02T11:25:37.078Z,15.70
2022-11-02T11:28:57.104Z,15.88
2022-11-02T11:32:06.209Z,15.75
2022-11-02T11:35:20.354Z,16.13
2022-11-02T11:38:29.086Z,16.45
2022-11-02T11:41:42.262Z,16.63
2022-11-02T11:45:02.763Z,16.51
2022-11-02T11:48:33.532Z,16.40
2022-11-02T11:51:43.259Z,15.25
2022-11-02T11:54:58.155Z,14.89
2022-11-02T11:58:16.887Z,14.83
2022-11-02T12:01:25.460Z,14.77
2022-11-02T12:04:36.912Z,14.96
2022-11-02T12:08:29.466Z,15.04
2022-11-02T12:11:55.099Z,14.98
2022-11-02T12:15:21.161Z,14.70
2022-11-02T12:18:50.673Z,14.69
2022-11-02T12:22:14.153Z,14.52
2022-11-02T12:25:43.471Z,14.39
2022-11-02T12:29:08.495Z,14.19
2022-11-02T12:32:43.271Z,14.21
2022-11-02T12:36:06.648Z,14.01
2022-11-02T12:39:30.258Z,14.00
2022-11-02T12:42:52.389Z,13.97
2022-11-02T12:46:10.780Z,13.97
2022-11-02T12:49:46.296Z,13.95
2022-11-02T12:53:20.053Z,13.91
2022-11-02T12:56:39.842Z,13.81
2022-11-02T12:59:54.741Z,13.96
2022-11-02T13:03:18.669Z,14.11
2022-11-02T13:06:38.173Z,14.34
2022-11-02T13:09:58.063Z,14.40
2022-11-02T13:13:14.637Z,14.64
2022-11-02T13:16:39.917Z,14.66
2022-11-02T13:19:54.591Z,14.76
2022-11-02T13:23:19.342Z,15.01
2022-11-02T13:26:32.929Z,15.12
2022-11-02T13:29:48.060Z,15.15
2022-11-02T13:33:05.585Z,15.20
2022-11-02T13:36:16.396Z,15.04
2022-11-02T13:39:38.229Z,15.11
2022-11-02T13:43:20.404Z,15.09
2022-11-02T13:47:05.065Z,15.12
2022-11-02T13:50:19.052Z,15.17
2022-11-02T13:53:34.931Z,14.61
2022-11-02T13:56:45.742Z,14.50
2022-11-02T13:59:54.066Z,14.49
2022-11-02T14:03:13.642Z,14.46
2022-11-02T14:06:23.863Z,14.57
2022-11-02T14:09:39.757Z,14.65
2022-11-02T14:12:50.854Z,14.76
2022-11-02T14:15:59.481Z,14.74
2022-11-02T14:19:24.542Z,14.78
2022-11-02T14:22:33.563Z,14.68
2022-11-02T14:25:49.663Z,14.67
2022-11-02T14:28:59.418Z,14.46
2022-11-02T14:32:20.298Z,14.50
2022-11-02T14:40:31.359Z,14.30
2022-11-02T14:44:04.460Z,14.07
2022-11-02T14:47:17.735Z,13.82
2022-11-02T14:50:27.907Z,13.72
2022-11-02T14:53:38.625Z,13.72
2022-11-02T14:56:56.469Z,13.58
2022-11-02T15:00:20.860Z,13.47
2022-11-02T15:03:37.599Z,13.54
2022-11-02T15:06:56.070Z,13.50
2022-11-02T15:10:28.544Z,13.43
2022-11-02T15:13:48.677Z,13.15
2022-11-02T15:16:58.390Z,13.00
2022-11-02T15:20:31.961Z,12.80
2022-11-02T15:23:48.853Z,12.63
2022-11-02T15:27:01.867Z,12.46
2022-11-02T15:30:17.080Z,12.29
2022-11-02T15:33:38.077Z,12.13
2022-11-02T15:36:47.918Z,11.96
2022-11-02T15:40:00.236Z,11.82
2022-11-02T15:43:30.283Z,11.73
2022-11-02T15:46:55.683Z,11.58
2022-11-02T15:50:54.439Z,11.41
2022-11-02T15:54:22.406Z,11.28
2022-11-02T15:57:47.728Z,11.13
2022-11-02T16:01:21.727Z,10.98
2022-11-02T16:04:30.123Z,10.88
2022-11-02T16:08:05.334Z,10.77
2022-11-02T16:11:17.720Z,10.61
2022-11-02T16:14:25.959Z,10.51
2022-11-02T16:17:34.245Z,10.39
2022-11-02T16:20:46.342Z,10.28
2022-11-02T16:23:59.385Z,10.18
2022-11-02T16:27:12.761Z,10.10
2022-11-02T16:30:23.920Z,10.04
2022-11-02T16:33:38.969Z,10.39
2022-11-02T16:36:47.788Z,10.30
2022-11-02T16:39:57.714Z,10.16
2022-11-02T16:43:06.161Z,9.78
2022-11-02T16:46:20.322Z,9.52
2022-11-02T16:49:29.753Z,9.40
2022-11-02T16:52:39.145Z,9.27
2022-11-02T16:55:49.637Z,9.24
2022-11-02T16:59:04.717Z,9.19
2022-11-02T17:02:15.883Z,9.11
2022-11-02T17:05:27.219Z,9.01
2022-11-02T17:08:38.469Z,9.21
2022-11-02T17:11:49.307Z,9.10
2022-11-02T17:15:18.056Z,9.16
2022-11-02T17:18:29.886Z,9.06
2022-11-02T17:21:39.072Z,8.78
2022-11-02T17:24:47.619Z,8.61
2022-11-02T17:27:59.265Z,8.44
2022-11-02T17:31:20.107Z,8.47
2022-11-02T17:34:29.139Z,8.38
2022-11-02T17:37:38.062Z,8.31
2022-11-02T17:40:51.996Z,8.28
2022-11-02T17:43:59.252Z,8.31
2022-11-02T17:47:13.585Z,8.27
2022-11-02T17:50:22.215Z,8.27
2022-11-02T17:53:30.445Z,8.18
2022-11-02T17:56:38.723Z,8.07
2022-11-02T17:59:47.073Z,8.07
2022-11-02T18:02:59.595Z,8.07
2022-11-02T18:06:08.702Z,7.98
2022-11-02T18:09:19.353Z,7.91
2022-11-02T18:12:27.791Z,7.92
2022-11-02T18:15:36.058Z,7.77
2022-11-02T18:18:45.665Z,7.77
2022-11-02T18:21:53.925Z,7.90
2022-11-02T18:25:02.099Z,7.78
2022-11-02T18:28:10.690Z,7.67
2022-11-02T18:31:18.950Z,7.54
2022-11-02T18:34:28.588Z,7.51
2022-11-02T18:37:37.253Z,7.48
2022-11-02T18:40:45.674Z,7.44
2022-11-02T18:43:57.985Z,7.46
2022-11-02T18:47:10.893Z,7.47
2022-11-02T18:50:20.727Z,7.37
2022-11-02T18:53:28.869Z,7.37
2022-11-02T18:56:37.074Z,7.36
2022-11-02T18:59:45.346Z,7.27
2022-11-02T19:02:53.569Z,7.28
2022-11-02T19:06:21.158Z,7.05
2022-11-02T19:09:31.778Z,7.12
2022-11-02T19:12:40.087Z,7.13
2022-11-02T19:15:48.345Z,7.11
2022-11-02T19:18:56.876Z,7.14
2022-11-02T19:22:06.486Z,7.04
2022-11-02T19:25:16.139Z,6.97
2022-11-02T19:28:24.366Z,6.87
2022-11-02T19:31:32.863Z,6.92
2022-11-02T19:34:41.454Z,6.94
2022-11-02T19:37:51.126Z,6.90
2022-11-02T19:41:02.860Z,6.83
2022-11-02T19:44:11.090Z,6.80
2022-11-02T19:47:20.706Z,6.68
2022-11-02T19:50:29.690Z,6.68
2022-11-02T19:53:43.457Z,6.65
2022-11-02T19:56:51.816Z,6.64
2022-11-02T20:00:00.377Z,6.60
2022-11-02T20:03:08.716Z,6.63
2022-11-02T20:06:20.174Z,6.45
2022-11-02T20:09:30.140Z,6.37
2022-11-02T20:12:38.684Z,6.36
2022-11-02T20:15:46.997Z,6.37
2022-11-02T20:18:57.099Z,6.35
2022-11-02T20:22:08.666Z,6.34
2022-11-02T20:25:19.002Z,6.33
2022-11-02T20:28:27.207Z,6.30
2022-11-02T20:31:37.870Z,6.18
2022-11-02T20:34:46.961Z,6.26
2022-11-02T20:37:55.573Z,6.16
2022-11-02T20:41:12.435Z,6.16
2022-11-02T20:44:22.197Z,6.07
2022-11-02T20:47:30.504Z,6.06
2022-11-02T20:50:38.735Z,6.02
2022-11-02T20:53:48.879Z,6.00
2022-11-02T20:56:59.147Z,6.00
2022-11-02T21:00:10.055Z,6.02
2022-11-02T21:03:18.838Z,6.02
2022-11-02T21:06:27.068Z,6.04
2022-11-02T21:09:35.661Z,5.94
2022-11-02T21:13:02.947Z,5.91
2022-11-02T21:16:12.927Z,5.84
2022-11-02T21:19:21.701Z,5.86
2022-11-02T21:22:30.044Z,5.79
2022-11-02T21:25:38.493Z,5.84
2022-11-02T21:28:48.285Z,5.80
2022-11-02T21:31:56.655Z,5.66
2022-11-02T21:35:05.417Z,5.45
2022-11-02T21:38:13.680Z,5.29
2022-11-02T21:41:26.530Z,5.23
2022-11-02T21:44:36.219Z,5.23
2022-11-02T21:47:44.500Z,5.20
2022-11-02T21:51:05.898Z,5.13
2022-11-02T21:54:14.482Z,5.14
2022-11-02T21:57:22.736Z,5.13
2022-11-02T22:00:46.302Z,5.11
2022-11-02T22:03:54.772Z,5.13
2022-11-02T22:07:04.436Z,5.12
2022-11-02T22:10:12.635Z,5.11
2022-11-02T22:13:36.144Z,5.12
2022-11-02T22:16:45.803Z,5.15
2022-11-02T22:19:54.022Z,4.98
2022-11-02T22:23:02.263Z,4.99
2022-11-02T22:26:14.576Z,4.99
2022-11-02T22:29:23.035Z,4.95
2022-11-02T22:32:32.652Z,4.85
2022-11-02T22:35:40.937Z,4.93
2022-11-02T22:38:58.897Z,4.84
2022-11-02T22:42:07.167Z,4.85
2022-11-02T22:45:15.664Z,4.87
2022-11-02T22:48:25.330Z,4.83
2022-11-02T22:51:37.062Z,4.84
2022-11-02T22:54:45.458Z,4.76
2022-11-02T22:57:59.728Z,4.74
2022-11-02T23:01:11.383Z,4.74
2022-11-02T23:04:21.313Z,4.72
2022-11-02T23:07:29.733Z,4.70
2022-11-02T23:10:54.874Z,4.69
2022-11-02T23:14:05.940Z,4.69
2022-11-02T23:17:14.627Z,4.64
2022-11-02T23:20:24.495Z,4.65
2022-11-02T23:23:50.506Z,4.63
2022-11-02T23:26:59.670Z,4.62
2022-11-02T23:30:27.477Z,4.56
2022-11-02T23:33:36.890Z,4.51
2022-11-02T23:36:45.690Z,4.48
2022-11-02T23:39:53.900Z,4.57
2022-11-02T23:43:03.424Z,4.53
2022-11-02T23:46:12.257Z,4.50
2022-11-02T23:49:21.115Z,4.53
2022-11-02T23:52:48.111Z,4.42
2022-11-02T23:56:14.465Z,4.45
2022-11-02T23:59:22.998Z,4.47
